Terminal Aerodrome Forecast
Issued by NWS

Home | Current Version | Previous Version | Text Only | Print | Product List | Glossary On
Versions: 1 2 3 4 5 6 7 8 9 10 11 12 13 14
239
FTPA31 PHFO 111734
TAFHJH
TAF
PHJH 111734Z 1118/1218 08012G18KT P6SM FEW045
     FM120500 05008KT P6SM FEW045=

USA.gov is the U.S. government's official web portal to all federal, state and local government web resources and services.